sensor_id;sensor_type;location;lat;lon;timestamp;P1;durP1;ratioP1;P2;durP2;ratioP2
60370;SDS011;48550;40.588;49.684;2023-02-01T00:01:42;58.17;;;24.77;;
60370;SDS011;48550;40.588;49.684;2023-02-01T00:04:08;54.28;;;24.25;;
60370;SDS011;48550;40.588;49.684;2023-02-01T00:06:33;55.00;;;23.33;;
60370;SDS011;48550;40.588;49.684;2023-02-01T00:08:59;51.00;;;23.30;;
60370;SDS011;48550;40.588;49.684;2023-02-01T00:11:25;55.45;;;23.17;;
60370;SDS011;48550;40.588;49.684;2023-02-01T00:13:51;56.42;;;23.90;;
60370;SDS011;48550;40.588;49.684;2023-02-01T00:16:21;53.58;;;23.05;;
60370;SDS011;48550;40.588;49.684;2023-02-01T00:18:49;51.45;;;21.88;;
60370;SDS011;48550;40.588;49.684;2023-02-01T00:21:17;55.75;;;23.42;;
60370;SDS011;48550;40.588;49.684;2023-02-01T00:23:45;50.55;;;23.23;;
60370;SDS011;48550;40.588;49.684;2023-02-01T00:26:57;50.67;;;21.38;;
60370;SDS011;48550;40.588;49.684;2023-02-01T00:28:59;46.10;;;21.55;;
60370;SDS011;48550;40.588;49.684;2023-02-01T00:31:26;45.35;;;20.90;;
60370;SDS011;48550;40.588;49.684;2023-02-01T00:33:52;55.15;;;22.33;;
60370;SDS011;48550;40.588;49.684;2023-02-01T00:36:18;50.78;;;22.73;;
60370;SDS011;48550;40.588;49.684;2023-02-01T00:38:44;51.15;;;21.58;;
60370;SDS011;48550;40.588;49.684;2023-02-01T00:43:39;46.72;;;21.42;;
60370;SDS011;48550;40.588;49.684;2023-02-01T00:46:06;51.22;;;22.95;;
60370;SDS011;48550;40.588;49.684;2023-02-01T00:48:32;50.70;;;21.92;;
60370;SDS011;48550;40.588;49.684;2023-02-01T00:51:01;51.95;;;22.90;;
60370;SDS011;48550;40.588;49.684;2023-02-01T00:53:34;51.42;;;22.90;;
60370;SDS011;48550;40.588;49.684;2023-02-01T00:56:00;51.00;;;22.85;;
60370;SDS011;48550;40.588;49.684;2023-02-01T00:58:26;50.10;;;21.92;;
60370;SDS011;48550;40.588;49.684;2023-02-01T01:01:09;48.75;;;22.35;;
60370;SDS011;48550;40.588;49.684;2023-02-01T01:03:36;47.58;;;21.45;;
60370;SDS011;48550;40.588;49.684;2023-02-01T01:06:07;50.20;;;21.50;;
60370;SDS011;48550;40.588;49.684;2023-02-01T01:08:35;46.35;;;21.58;;
60370;SDS011;48550;40.588;49.684;2023-02-01T01:11:06;47.85;;;21.70;;
60370;SDS011;48550;40.588;49.684;2023-02-01T01:13:34;46.63;;;21.35;;
60370;SDS011;48550;40.588;49.684;2023-02-01T01:16:01;55.63;;;23.05;;
60370;SDS011;48550;40.588;49.684;2023-02-01T01:18:29;47.50;;;22.17;;
60370;SDS011;48550;40.588;49.684;2023-02-01T01:20:56;47.40;;;21.80;;
60370;SDS011;48550;40.588;49.684;2023-02-01T01:23:22;54.30;;;23.45;;
60370;SDS011;48550;40.588;49.684;2023-02-01T01:25:47;50.33;;;22.63;;
60370;SDS011;48550;40.588;49.684;2023-02-01T01:28:13;49.78;;;22.05;;
60370;SDS011;48550;40.588;49.684;2023-02-01T01:30:39;45.50;;;20.20;;
60370;SDS011;48550;40.588;49.684;2023-02-01T01:33:04;49.95;;;23.08;;
60370;SDS011;48550;40.588;49.684;2023-02-01T01:35:31;51.08;;;21.27;;
60370;SDS011;48550;40.588;49.684;2023-02-01T01:37:58;46.47;;;21.70;;
60370;SDS011;48550;40.588;49.684;2023-02-01T01:40:24;51.10;;;23.17;;
60370;SDS011;48550;40.588;49.684;2023-02-01T01:42:50;47.53;;;21.02;;
60370;SDS011;48550;40.588;49.684;2023-02-01T01:45:34;51.78;;;23.17;;
60370;SDS011;48550;40.588;49.684;2023-02-01T01:51:02;43.50;;;21.05;;
60370;SDS011;48550;40.588;49.684;2023-02-01T01:53:35;43.83;;;21.33;;
60370;SDS011;48550;40.588;49.684;2023-02-01T01:56:07;47.45;;;21.85;;
60370;SDS011;48550;40.588;49.684;2023-02-01T01:58:33;44.08;;;21.13;;
60370;SDS011;48550;40.588;49.684;2023-02-01T02:00:59;45.70;;;21.13;;
60370;SDS011;48550;40.588;49.684;2023-02-01T02:03:27;50.25;;;22.63;;
60370;SDS011;48550;40.588;49.684;2023-02-01T02:05:54;39.05;;;19.70;;
60370;SDS011;48550;40.588;49.684;2023-02-01T02:08:23;45.75;;;21.02;;
60370;SDS011;48550;40.588;49.684;2023-02-01T02:10:52;48.47;;;21.58;;
60370;SDS011;48550;40.588;49.684;2023-02-01T02:16:05;45.35;;;21.45;;
60370;SDS011;48550;40.588;49.684;2023-02-01T02:35:39;48.03;;;21.40;;
60370;SDS011;48550;40.588;49.684;2023-02-01T02:40:49;48.05;;;21.55;;
60370;SDS011;48550;40.588;49.684;2023-02-01T02:43:36;47.05;;;22.08;;
60370;SDS011;48550;40.588;49.684;2023-02-01T02:46:39;49.72;;;20.60;;
60370;SDS011;48550;40.588;49.684;2023-02-01T02:49:34;50.25;;;22.08;;
60370;SDS011;48550;40.588;49.684;2023-02-01T02:52:12;44.08;;;21.02;;
60370;SDS011;48550;40.588;49.684;2023-02-01T02:55:01;47.25;;;21.10;;
60370;SDS011;48550;40.588;49.684;2023-02-01T02:57:37;52.47;;;22.98;;
60370;SDS011;48550;40.588;49.684;2023-02-01T03:00:27;43.90;;;20.58;;
60370;SDS011;48550;40.588;49.684;2023-02-01T03:03:14;45.10;;;21.50;;
60370;SDS011;48550;40.588;49.684;2023-02-01T03:05:58;49.53;;;23.58;;
60370;SDS011;48550;40.588;49.684;2023-02-01T03:08:25;45.80;;;22.20;;
60370;SDS011;48550;40.588;49.684;2023-02-01T03:13:51;47.92;;;23.02;;
60370;SDS011;48550;40.588;49.684;2023-02-01T03:16:28;44.75;;;21.75;;
60370;SDS011;48550;40.588;49.684;2023-02-01T03:19:02;52.75;;;23.30;;
60370;SDS011;48550;40.588;49.684;2023-02-01T03:21:49;43.85;;;20.00;;
60370;SDS011;48550;40.588;49.684;2023-02-01T03:24:38;45.83;;;22.48;;
60370;SDS011;48550;40.588;49.684;2023-02-01T03:32:25;49.03;;;22.75;;
60370;SDS011;48550;40.588;49.684;2023-02-01T03:34:51;45.70;;;22.17;;
60370;SDS011;48550;40.588;49.684;2023-02-01T03:37:25;44.90;;;20.67;;
60370;SDS011;48550;40.588;49.684;2023-02-01T03:42:24;53.67;;;24.52;;
60370;SDS011;48550;40.588;49.684;2023-02-01T03:47:37;42.50;;;20.85;;
60370;SDS011;48550;40.588;49.684;2023-02-01T03:50:10;49.03;;;22.73;;
60370;SDS011;48550;40.588;49.684;2023-02-01T03:52:47;46.28;;;21.05;;
60370;SDS011;48550;40.588;49.684;2023-02-01T03:55:17;60.78;;;23.38;;
60370;SDS011;48550;40.588;49.684;2023-02-01T03:57:51;58.63;;;22.35;;
60370;SDS011;48550;40.588;49.684;2023-02-01T04:00:21;45.58;;;20.92;;
60370;SDS011;48550;40.588;49.684;2023-02-01T04:02:48;52.78;;;23.65;;
60370;SDS011;48550;40.588;49.684;2023-02-01T04:05:15;51.08;;;23.08;;
60370;SDS011;48550;40.588;49.684;2023-02-01T04:07:41;53.15;;;23.42;;
60370;SDS011;48550;40.588;49.684;2023-02-01T04:10:08;56.67;;;24.05;;
60370;SDS011;48550;40.588;49.684;2023-02-01T04:12:34;60.72;;;23.17;;
60370;SDS011;48550;40.588;49.684;2023-02-01T04:15:00;47.38;;;21.83;;
60370;SDS011;48550;40.588;49.684;2023-02-01T04:17:25;55.05;;;23.10;;
60370;SDS011;48550;40.588;49.684;2023-02-01T04:19:51;57.95;;;22.20;;
60370;SDS011;48550;40.588;49.684;2023-02-01T04:22:17;93.70;;;24.33;;
60370;SDS011;48550;40.588;49.684;2023-02-01T04:24:43;60.28;;;22.85;;
60370;SDS011;48550;40.588;49.684;2023-02-01T04:27:08;50.85;;;21.48;;
60370;SDS011;48550;40.588;49.684;2023-02-01T04:29:34;53.58;;;22.60;;
60370;SDS011;48550;40.588;49.684;2023-02-01T04:32:00;47.35;;;20.63;;
60370;SDS011;48550;40.588;49.684;2023-02-01T04:34:26;64.03;;;22.40;;
60370;SDS011;48550;40.588;49.684;2023-02-01T04:36:51;58.88;;;22.67;;
60370;SDS011;48550;40.588;49.684;2023-02-01T04:39:17;52.03;;;22.98;;
60370;SDS011;48550;40.588;49.684;2023-02-01T04:41:43;45.42;;;21.20;;
60370;SDS011;48550;40.588;49.684;2023-02-01T04:44:12;46.35;;;20.63;;
60370;SDS011;48550;40.588;49.684;2023-02-01T04:46:43;48.75;;;21.90;;
60370;SDS011;48550;40.588;49.684;2023-02-01T04:49:09;56.50;;;22.27;;
60370;SDS011;48550;40.588;49.684;2023-02-01T04:51:36;52.63;;;22.13;;
60370;SDS011;48550;40.588;49.684;2023-02-01T04:54:02;54.95;;;21.92;;
60370;SDS011;48550;40.588;49.684;2023-02-01T04:56:28;49.28;;;22.00;;
60370;SDS011;48550;40.588;49.684;2023-02-01T04:58:54;44.78;;;20.80;;
60370;SDS011;48550;40.588;49.684;2023-02-01T05:01:21;52.50;;;22.90;;
60370;SDS011;48550;40.588;49.684;2023-02-01T05:03:47;69.10;;;32.65;;
60370;SDS011;48550;40.588;49.684;2023-02-01T05:06:13;54.55;;;24.13;;
60370;SDS011;48550;40.588;49.684;2023-02-01T05:08:38;52.83;;;23.15;;
60370;SDS011;48550;40.588;49.684;2023-02-01T05:11:04;47.45;;;22.77;;
60370;SDS011;48550;40.588;49.684;2023-02-01T05:13:30;50.00;;;23.85;;
60370;SDS011;48550;40.588;49.684;2023-02-01T05:16:14;51.47;;;21.48;;
60370;SDS011;48550;40.588;49.684;2023-02-01T05:18:40;50.03;;;23.10;;
60370;SDS011;48550;40.588;49.684;2023-02-01T05:21:06;52.95;;;24.33;;
60370;SDS011;48550;40.588;49.684;2023-02-01T05:23:32;47.47;;;20.85;;
60370;SDS011;48550;40.588;49.684;2023-02-01T05:26:18;47.47;;;21.70;;
60370;SDS011;48550;40.588;49.684;2023-02-01T05:28:43;48.17;;;21.80;;
60370;SDS011;48550;40.588;49.684;2023-02-01T05:31:10;47.80;;;21.42;;
60370;SDS011;48550;40.588;49.684;2023-02-01T05:33:36;47.20;;;20.83;;
60370;SDS011;48550;40.588;49.684;2023-02-01T05:36:02;38.28;;;18.77;;
60370;SDS011;48550;40.588;49.684;2023-02-01T05:38:27;41.38;;;21.40;;
60370;SDS011;48550;40.588;49.684;2023-02-01T05:40:55;52.50;;;22.40;;
60370;SDS011;48550;40.588;49.684;2023-02-01T05:43:21;49.33;;;21.77;;
60370;SDS011;48550;40.588;49.684;2023-02-01T05:45:47;40.40;;;18.75;;
60370;SDS011;48550;40.588;49.684;2023-02-01T05:48:13;41.03;;;20.27;;
60370;SDS011;48550;40.588;49.684;2023-02-01T05:50:38;48.53;;;20.45;;
60370;SDS011;48550;40.588;49.684;2023-02-01T05:53:04;43.45;;;21.10;;
60370;SDS011;48550;40.588;49.684;2023-02-01T05:55:30;47.30;;;21.90;;
60370;SDS011;48550;40.588;49.684;2023-02-01T05:57:56;46.55;;;19.98;;
60370;SDS011;48550;40.588;49.684;2023-02-01T06:00:22;45.65;;;20.92;;
60370;SDS011;48550;40.588;49.684;2023-02-01T06:02:48;46.78;;;22.15;;
60370;SDS011;48550;40.588;49.684;2023-02-01T06:05:13;45.05;;;22.02;;
60370;SDS011;48550;40.588;49.684;2023-02-01T06:07:39;56.13;;;21.63;;
60370;SDS011;48550;40.588;49.684;2023-02-01T06:10:05;41.33;;;20.60;;
60370;SDS011;48550;40.588;49.684;2023-02-01T06:12:31;47.28;;;21.08;;
60370;SDS011;48550;40.588;49.684;2023-02-01T06:14:57;54.60;;;20.48;;
60370;SDS011;48550;40.588;49.684;2023-02-01T06:17:24;50.90;;;21.25;;
60370;SDS011;48550;40.588;49.684;2023-02-01T06:19:50;51.05;;;22.50;;
60370;SDS011;48550;40.588;49.684;2023-02-01T06:22:15;53.15;;;20.33;;
60370;SDS011;48550;40.588;49.684;2023-02-01T06:24:42;47.13;;;19.95;;
60370;SDS011;48550;40.588;49.684;2023-02-01T06:27:08;50.75;;;21.10;;
60370;SDS011;48550;40.588;49.684;2023-02-01T06:29:34;47.72;;;20.95;;
60370;SDS011;48550;40.588;49.684;2023-02-01T06:32:00;50.50;;;21.63;;
60370;SDS011;48550;40.588;49.684;2023-02-01T06:34:26;54.17;;;23.38;;
60370;SDS011;48550;40.588;49.684;2023-02-01T06:36:52;46.10;;;20.05;;
60370;SDS011;48550;40.588;49.684;2023-02-01T06:39:20;48.47;;;20.35;;
60370;SDS011;48550;40.588;49.684;2023-02-01T06:41:46;72.50;;;22.65;;
60370;SDS011;48550;40.588;49.684;2023-02-01T06:44:13;52.17;;;22.80;;
60370;SDS011;48550;40.588;49.684;2023-02-01T06:46:39;54.92;;;21.77;;
60370;SDS011;48550;40.588;49.684;2023-02-01T06:49:05;49.35;;;21.52;;
60370;SDS011;48550;40.588;49.684;2023-02-01T06:51:31;49.42;;;21.20;;
60370;SDS011;48550;40.588;49.684;2023-02-01T06:53:57;52.80;;;21.63;;
60370;SDS011;48550;40.588;49.684;2023-02-01T06:56:23;47.45;;;20.85;;
60370;SDS011;48550;40.588;49.684;2023-02-01T06:58:49;50.70;;;21.27;;
60370;SDS011;48550;40.588;49.684;2023-02-01T07:01:15;51.40;;;21.15;;
60370;SDS011;48550;40.588;49.684;2023-02-01T07:03:41;45.00;;;20.33;;
60370;SDS011;48550;40.588;49.684;2023-02-01T07:06:09;47.75;;;20.42;;
60370;SDS011;48550;40.588;49.684;2023-02-01T07:08:36;45.13;;;20.10;;
60370;SDS011;48550;40.588;49.684;2023-02-01T07:11:03;38.67;;;17.33;;
60370;SDS011;48550;40.588;49.684;2023-02-01T07:13:33;52.05;;;20.42;;
60370;SDS011;48550;40.588;49.684;2023-02-01T07:16:03;52.08;;;20.80;;
60370;SDS011;48550;40.588;49.684;2023-02-01T07:18:31;47.47;;;21.48;;
60370;SDS011;48550;40.588;49.684;2023-02-01T07:20:57;52.58;;;21.40;;
60370;SDS011;48550;40.588;49.684;2023-02-01T07:23:23;46.15;;;20.05;;
60370;SDS011;48550;40.588;49.684;2023-02-01T07:25:57;52.10;;;19.70;;
60370;SDS011;48550;40.588;49.684;2023-02-01T07:28:24;50.83;;;20.05;;
60370;SDS011;48550;40.588;49.684;2023-02-01T07:30:50;44.72;;;19.73;;
60370;SDS011;48550;40.588;49.684;2023-02-01T07:33:20;46.08;;;20.80;;
60370;SDS011;48550;40.588;49.684;2023-02-01T07:35:47;45.17;;;20.20;;
60370;SDS011;48550;40.588;49.684;2023-02-01T07:38:14;48.08;;;22.48;;
60370;SDS011;48550;40.588;49.684;2023-02-01T07:40:41;49.10;;;20.48;;
60370;SDS011;48550;40.588;49.684;2023-02-01T07:43:07;49.65;;;22.60;;
60370;SDS011;48550;40.588;49.684;2023-02-01T07:45:33;46.08;;;20.23;;
60370;SDS011;48550;40.588;49.684;2023-02-01T07:48:00;46.67;;;20.75;;
60370;SDS011;48550;40.588;49.684;2023-02-01T07:50:26;47.53;;;19.88;;
60370;SDS011;48550;40.588;49.684;2023-02-01T07:52:51;46.85;;;20.95;;
60370;SDS011;48550;40.588;49.684;2023-02-01T07:55:18;47.08;;;21.27;;
60370;SDS011;48550;40.588;49.684;2023-02-01T07:57:45;49.78;;;20.95;;
60370;SDS011;48550;40.588;49.684;2023-02-01T08:00:11;48.13;;;22.02;;
60370;SDS011;48550;40.588;49.684;2023-02-01T08:02:59;49.75;;;22.02;;
60370;SDS011;48550;40.588;49.684;2023-02-01T08:05:25;46.85;;;21.95;;
60370;SDS011;48550;40.588;49.684;2023-02-01T08:07:51;59.60;;;24.20;;
60370;SDS011;48550;40.588;49.684;2023-02-01T08:10:17;58.55;;;25.45;;
60370;SDS011;48550;40.588;49.684;2023-02-01T08:12:44;54.53;;;24.30;;
60370;SDS011;48550;40.588;49.684;2023-02-01T08:15:16;44.72;;;21.00;;
60370;SDS011;48550;40.588;49.684;2023-02-01T08:17:48;42.97;;;19.13;;
60370;SDS011;48550;40.588;49.684;2023-02-01T08:20:16;38.50;;;18.08;;
60370;SDS011;48550;40.588;49.684;2023-02-01T08:22:42;39.88;;;19.98;;
60370;SDS011;48550;40.588;49.684;2023-02-01T08:25:08;46.10;;;20.85;;
60370;SDS011;48550;40.588;49.684;2023-02-01T08:27:34;48.03;;;20.33;;
60370;SDS011;48550;40.588;49.684;2023-02-01T08:30:00;43.42;;;19.95;;
60370;SDS011;48550;40.588;49.684;2023-02-01T08:32:26;42.78;;;18.60;;
60370;SDS011;48550;40.588;49.684;2023-02-01T08:34:52;42.88;;;18.42;;
60370;SDS011;48550;40.588;49.684;2023-02-01T08:37:18;45.97;;;19.02;;
60370;SDS011;48550;40.588;49.684;2023-02-01T08:39:43;42.83;;;18.33;;
60370;SDS011;48550;40.588;49.684;2023-02-01T08:42:10;49.00;;;18.75;;
60370;SDS011;48550;40.588;49.684;2023-02-01T08:44:55;39.25;;;18.63;;
60370;SDS011;48550;40.588;49.684;2023-02-01T08:47:21;37.58;;;18.27;;
60370;SDS011;48550;40.588;49.684;2023-02-01T08:49:47;42.30;;;18.92;;
60370;SDS011;48550;40.588;49.684;2023-02-01T08:52:12;40.53;;;18.27;;
60370;SDS011;48550;40.588;49.684;2023-02-01T08:54:38;40.55;;;17.75;;
60370;SDS011;48550;40.588;49.684;2023-02-01T08:57:06;46.70;;;18.50;;
60370;SDS011;48550;40.588;49.684;2023-02-01T08:59:32;39.80;;;17.25;;
60370;SDS011;48550;40.588;49.684;2023-02-01T09:01:58;46.22;;;17.00;;
60370;SDS011;48550;40.588;49.684;2023-02-01T09:04:23;38.47;;;16.95;;
60370;SDS011;48550;40.588;49.684;2023-02-01T09:06:49;38.97;;;18.20;;
60370;SDS011;48550;40.588;49.684;2023-02-01T09:09:15;33.10;;;15.60;;
60370;SDS011;48550;40.588;49.684;2023-02-01T09:11:40;31.75;;;14.60;;
60370;SDS011;48550;40.588;49.684;2023-02-01T09:14:06;39.42;;;17.10;;
60370;SDS011;48550;40.588;49.684;2023-02-01T09:16:32;32.60;;;15.15;;
60370;SDS011;48550;40.588;49.684;2023-02-01T09:18:58;35.22;;;16.73;;
60370;SDS011;48550;40.588;49.684;2023-02-01T09:21:23;34.97;;;15.10;;
60370;SDS011;48550;40.588;49.684;2023-02-01T09:23:52;31.33;;;15.18;;
60370;SDS011;48550;40.588;49.684;2023-02-01T09:26:18;36.00;;;16.77;;
60370;SDS011;48550;40.588;49.684;2023-02-01T09:28:43;34.97;;;16.30;;
60370;SDS011;48550;40.588;49.684;2023-02-01T09:31:09;32.28;;;16.20;;
60370;SDS011;48550;40.588;49.684;2023-02-01T09:33:35;35.83;;;16.15;;
60370;SDS011;48550;40.588;49.684;2023-02-01T09:36:02;34.03;;;15.75;;
60370;SDS011;48550;40.588;49.684;2023-02-01T09:38:30;37.83;;;15.82;;
60370;SDS011;48550;40.588;49.684;2023-02-01T09:40:57;34.67;;;16.00;;
60370;SDS011;48550;40.588;49.684;2023-02-01T09:43:45;35.08;;;16.42;;
60370;SDS011;48550;40.588;49.684;2023-02-01T09:46:24;34.28;;;15.27;;
60370;SDS011;48550;40.588;49.684;2023-02-01T09:48:54;42.17;;;16.60;;
60370;SDS011;48550;40.588;49.684;2023-02-01T09:51:24;32.20;;;16.17;;
60370;SDS011;48550;40.588;49.684;2023-02-01T09:53:58;32.85;;;16.10;;
60370;SDS011;48550;40.588;49.684;2023-02-01T10:02:25;36.65;;;17.15;;
60370;SDS011;48550;40.588;49.684;2023-02-01T10:04:57;40.00;;;18.60;;
60370;SDS011;48550;40.588;49.684;2023-02-01T10:20:56;35.60;;;15.20;;
60370;SDS011;48550;40.588;49.684;2023-02-01T10:28:46;40.58;;;18.38;;
60370;SDS011;48550;40.588;49.684;2023-02-01T10:31:16;35.38;;;15.48;;
60370;SDS011;48550;40.588;49.684;2023-02-01T10:33:44;42.53;;;19.15;;
60370;SDS011;48550;40.588;49.684;2023-02-01T10:38:42;31.63;;;14.82;;
60370;SDS011;48550;40.588;49.684;2023-02-01T10:41:12;33.97;;;15.27;;
60370;SDS011;48550;40.588;49.684;2023-02-01T10:43:43;32.72;;;15.40;;
60370;SDS011;48550;40.588;49.684;2023-02-01T10:46:12;34.22;;;12.90;;
60370;SDS011;48550;40.588;49.684;2023-02-01T10:48:38;32.30;;;15.82;;
60370;SDS011;48550;40.588;49.684;2023-02-01T10:51:15;37.92;;;17.83;;
60370;SDS011;48550;40.588;49.684;2023-02-01T10:56:25;47.45;;;24.40;;
60370;SDS011;48550;40.588;49.684;2023-02-01T10:58:59;33.72;;;16.20;;
60370;SDS011;48550;40.588;49.684;2023-02-01T11:01:28;34.15;;;15.25;;
60370;SDS011;48550;40.588;49.684;2023-02-01T11:03:56;34.85;;;17.65;;
60370;SDS011;48550;40.588;49.684;2023-02-01T11:08:55;37.13;;;16.85;;
60370;SDS011;48550;40.588;49.684;2023-02-01T11:14:25;35.80;;;15.75;;
60370;SDS011;48550;40.588;49.684;2023-02-01T11:16:52;37.30;;;16.92;;
60370;SDS011;48550;40.588;49.684;2023-02-01T11:19:45;32.88;;;16.15;;
60370;SDS011;48550;40.588;49.684;2023-02-01T11:22:12;34.10;;;16.20;;
60370;SDS011;48550;40.588;49.684;2023-02-01T11:24:40;37.92;;;16.45;;
60370;SDS011;48550;40.588;49.684;2023-02-01T11:27:14;39.92;;;16.95;;
60370;SDS011;48550;40.588;49.684;2023-02-01T11:29:45;34.53;;;18.55;;
60370;SDS011;48550;40.588;49.684;2023-02-01T11:32:14;39.83;;;18.63;;
60370;SDS011;48550;40.588;49.684;2023-02-01T11:34:44;36.85;;;17.02;;
60370;SDS011;48550;40.588;49.684;2023-02-01T11:37:55;36.47;;;16.42;;
60370;SDS011;48550;40.588;49.684;2023-02-01T11:40:08;29.30;;;13.95;;
60370;SDS011;48550;40.588;49.684;2023-02-01T11:43:00;35.40;;;15.82;;
60370;SDS011;48550;40.588;49.684;2023-02-01T11:45:35;36.05;;;17.38;;
60370;SDS011;48550;40.588;49.684;2023-02-01T11:48:02;38.10;;;17.95;;
60370;SDS011;48550;40.588;49.684;2023-02-01T11:50:37;61.42;;;26.95;;
60370;SDS011;48550;40.588;49.684;2023-02-01T12:09:34;41.63;;;18.42;;
60370;SDS011;48550;40.588;49.684;2023-02-01T12:26:44;54.75;;;24.67;;
60370;SDS011;48550;40.588;49.684;2023-02-01T12:34:40;40.95;;;18.83;;
60370;SDS011;48550;40.588;49.684;2023-02-01T12:42:44;32.95;;;16.40;;
60370;SDS011;48550;40.588;49.684;2023-02-01T12:45:54;31.67;;;15.05;;
60370;SDS011;48550;40.588;49.684;2023-02-01T12:48:31;30.42;;;14.98;;
60370;SDS011;48550;40.588;49.684;2023-02-01T12:51:12;29.17;;;14.65;;
60370;SDS011;48550;40.588;49.684;2023-02-01T12:56:56;37.15;;;17.65;;
60370;SDS011;48550;40.588;49.684;2023-02-01T12:59:34;37.72;;;17.98;;
60370;SDS011;48550;40.588;49.684;2023-02-01T13:02:08;34.95;;;16.50;;
60370;SDS011;48550;40.588;49.684;2023-02-01T13:05:36;36.45;;;16.48;;
60370;SDS011;48550;40.588;49.684;2023-02-01T13:08:01;34.47;;;15.93;;
60370;SDS011;48550;40.588;49.684;2023-02-01T13:10:43;40.97;;;17.98;;
60370;SDS011;48550;40.588;49.684;2023-02-01T13:15:58;33.35;;;16.45;;
60370;SDS011;48550;40.588;49.684;2023-02-01T13:18:50;36.38;;;16.35;;
60370;SDS011;48550;40.588;49.684;2023-02-01T13:21:24;39.53;;;17.85;;
60370;SDS011;48550;40.588;49.684;2023-02-01T13:23:53;37.08;;;18.40;;
60370;SDS011;48550;40.588;49.684;2023-02-01T13:26:19;38.10;;;18.10;;
60370;SDS011;48550;40.588;49.684;2023-02-01T13:28:52;39.03;;;18.35;;
60370;SDS011;48550;40.588;49.684;2023-02-01T13:31:47;36.17;;;18.65;;
60370;SDS011;48550;40.588;49.684;2023-02-01T13:40:07;42.38;;;19.52;;
60370;SDS011;48550;40.588;49.684;2023-02-01T13:42:56;39.03;;;18.98;;
60370;SDS011;48550;40.588;49.684;2023-02-01T13:45:30;39.00;;;18.20;;
60370;SDS011;48550;40.588;49.684;2023-02-01T13:48:00;39.53;;;17.55;;
60370;SDS011;48550;40.588;49.684;2023-02-01T13:55:41;49.90;;;20.42;;
60370;SDS011;48550;40.588;49.684;2023-02-01T14:00:47;45.45;;;20.90;;
60370;SDS011;48550;40.588;49.684;2023-02-01T14:03:22;40.35;;;18.70;;
60370;SDS011;48550;40.588;49.684;2023-02-01T14:06:42;52.53;;;22.67;;
60370;SDS011;48550;40.588;49.684;2023-02-01T14:16:40;42.22;;;18.73;;
60370;SDS011;48550;40.588;49.684;2023-02-01T14:19:30;43.10;;;20.15;;
60370;SDS011;48550;40.588;49.684;2023-02-01T14:21:58;41.10;;;18.45;;
60370;SDS011;48550;40.588;49.684;2023-02-01T14:24:29;46.45;;;20.55;;
60370;SDS011;48550;40.588;49.684;2023-02-01T14:27:01;35.55;;;18.58;;
60370;SDS011;48550;40.588;49.684;2023-02-01T14:29:42;41.03;;;18.90;;
60370;SDS011;48550;40.588;49.684;2023-02-01T14:32:20;45.03;;;19.60;;
60370;SDS011;48550;40.588;49.684;2023-02-01T14:34:51;51.17;;;21.90;;
60370;SDS011;48550;40.588;49.684;2023-02-01T14:42:20;39.30;;;16.42;;
60370;SDS011;48550;40.588;49.684;2023-02-01T14:47:44;40.70;;;17.88;;
60370;SDS011;48550;40.588;49.684;2023-02-01T14:58:56;39.83;;;17.42;;
60370;SDS011;48550;40.588;49.684;2023-02-01T15:01:27;41.35;;;17.58;;
60370;SDS011;48550;40.588;49.684;2023-02-01T15:04:09;35.97;;;17.50;;
60370;SDS011;48550;40.588;49.684;2023-02-01T15:14:41;46.33;;;19.15;;
60370;SDS011;48550;40.588;49.684;2023-02-01T15:17:27;43.65;;;19.80;;
60370;SDS011;48550;40.588;49.684;2023-02-01T15:20:01;41.13;;;17.90;;
60370;SDS011;48550;40.588;49.684;2023-02-01T15:22:35;41.38;;;18.42;;
60370;SDS011;48550;40.588;49.684;2023-02-01T15:25:01;45.60;;;19.48;;
60370;SDS011;48550;40.588;49.684;2023-02-01T15:27:28;39.47;;;17.35;;
60370;SDS011;48550;40.588;49.684;2023-02-01T15:33:06;40.50;;;18.42;;
60370;SDS011;48550;40.588;49.684;2023-02-01T15:35:43;42.28;;;18.05;;
60370;SDS011;48550;40.588;49.684;2023-02-01T15:38:44;45.33;;;18.92;;
60370;SDS011;48550;40.588;49.684;2023-02-01T15:43:41;50.88;;;18.33;;
60370;SDS011;48550;40.588;49.684;2023-02-01T15:46:23;38.45;;;17.83;;
60370;SDS011;48550;40.588;49.684;2023-02-01T15:48:56;36.45;;;17.50;;
60370;SDS011;48550;40.588;49.684;2023-02-01T15:51:23;38.78;;;18.63;;
60370;SDS011;48550;40.588;49.684;2023-02-01T15:53:58;39.33;;;19.38;;
60370;SDS011;48550;40.588;49.684;2023-02-01T15:56:40;46.80;;;19.98;;
60370;SDS011;48550;40.588;49.684;2023-02-01T15:59:13;40.97;;;17.83;;
60370;SDS011;48550;40.588;49.684;2023-02-01T16:01:42;40.63;;;18.08;;
60370;SDS011;48550;40.588;49.684;2023-02-01T16:04:16;42.38;;;18.42;;
60370;SDS011;48550;40.588;49.684;2023-02-01T16:07:01;46.33;;;19.95;;
60370;SDS011;48550;40.588;49.684;2023-02-01T16:09:36;43.15;;;20.00;;
60370;SDS011;48550;40.588;49.684;2023-02-01T16:12:33;41.45;;;19.73;;
60370;SDS011;48550;40.588;49.684;2023-02-01T16:15:23;43.85;;;19.75;;
60370;SDS011;48550;40.588;49.684;2023-02-01T16:17:49;39.67;;;17.70;;
60370;SDS011;48550;40.588;49.684;2023-02-01T16:20:15;32.75;;;16.23;;
60370;SDS011;48550;40.588;49.684;2023-02-01T16:22:40;34.47;;;17.27;;
60370;SDS011;48550;40.588;49.684;2023-02-01T16:25:06;32.90;;;15.60;;
60370;SDS011;48550;40.588;49.684;2023-02-01T16:27:32;33.08;;;16.40;;
60370;SDS011;48550;40.588;49.684;2023-02-01T16:29:58;36.70;;;16.50;;
60370;SDS011;48550;40.588;49.684;2023-02-01T16:32:26;37.80;;;17.40;;
60370;SDS011;48550;40.588;49.684;2023-02-01T16:35:03;32.75;;;15.77;;
60370;SDS011;48550;40.588;49.684;2023-02-01T16:37:30;33.63;;;17.00;;
60370;SDS011;48550;40.588;49.684;2023-02-01T16:39:58;42.28;;;18.25;;
60370;SDS011;48550;40.588;49.684;2023-02-01T16:42:24;36.35;;;16.77;;
60370;SDS011;48550;40.588;49.684;2023-02-01T16:44:50;36.78;;;17.77;;
60370;SDS011;48550;40.588;49.684;2023-02-01T16:47:17;37.55;;;17.98;;
60370;SDS011;48550;40.588;49.684;2023-02-01T16:49:44;37.60;;;17.40;;
60370;SDS011;48550;40.588;49.684;2023-02-01T16:52:14;40.75;;;18.50;;
60370;SDS011;48550;40.588;49.684;2023-02-01T16:54:42;35.53;;;17.73;;
60370;SDS011;48550;40.588;49.684;2023-02-01T16:57:12;37.40;;;18.48;;
60370;SDS011;48550;40.588;49.684;2023-02-01T16:59:39;41.05;;;19.55;;
60370;SDS011;48550;40.588;49.684;2023-02-01T17:02:05;42.63;;;20.08;;
60370;SDS011;48550;40.588;49.684;2023-02-01T17:04:35;37.50;;;17.52;;
60370;SDS011;48550;40.588;49.684;2023-02-01T17:07:00;34.72;;;16.60;;
60370;SDS011;48550;40.588;49.684;2023-02-01T17:12:00;35.95;;;16.88;;
60370;SDS011;48550;40.588;49.684;2023-02-01T17:14:26;33.85;;;16.48;;
60370;SDS011;48550;40.588;49.684;2023-02-01T17:16:53;37.83;;;19.27;;
60370;SDS011;48550;40.588;49.684;2023-02-01T17:19:20;34.42;;;18.02;;
60370;SDS011;48550;40.588;49.684;2023-02-01T17:21:50;33.00;;;16.58;;
60370;SDS011;48550;40.588;49.684;2023-02-01T17:24:22;35.58;;;19.05;;
60370;SDS011;48550;40.588;49.684;2023-02-01T17:26:50;39.20;;;18.00;;